sensor_id;sensor_type;location;lat;lon;timestamp;pressure;altitude;pressure_sealevel;temperature;humidity
46710;BME280;32442;51.514;-0.178;2022-09-09T00:04:06;99998.72;;;20.86;81.51
46710;BME280;32442;51.514;-0.178;2022-09-09T00:14:13;99988.00;;;20.88;81.47
46710;BME280;32442;51.514;-0.178;2022-09-09T00:16:44;99989.66;;;20.89;81.34
46710;BME280;32442;51.514;-0.178;2022-09-09T00:24:32;99983.22;;;20.89;81.85
46710;BME280;32442;51.514;-0.178;2022-09-09T00:29:37;99989.97;;;20.88;81.90
46710;BME280;32442;51.514;-0.178;2022-09-09T00:32:12;99993.75;;;20.92;81.80
46710;BME280;32442;51.514;-0.178;2022-09-09T00:37:09;99982.34;;;20.97;81.76
46710;BME280;32442;51.514;-0.178;2022-09-09T00:39:37;99989.13;;;20.96;81.80
46710;BME280;32442;51.514;-0.178;2022-09-09T00:44:36;99985.16;;;20.97;81.63
46710;BME280;32442;51.514;-0.178;2022-09-09T00:49:36;99984.84;;;20.98;82.45
46710;BME280;32442;51.514;-0.178;2022-09-09T00:54:44;99985.31;;;21.00;81.85
46710;BME280;32442;51.514;-0.178;2022-09-09T01:02:16;99976.41;;;20.98;82.13
46710;BME280;32442;51.514;-0.178;2022-09-09T01:04:49;99980.84;;;20.99;82.21
46710;BME280;32442;51.514;-0.178;2022-09-09T01:07:16;99971.59;;;20.99;81.76
46710;BME280;32442;51.514;-0.178;2022-09-09T01:12:23;99972.41;;;20.99;81.90
46710;BME280;32442;51.514;-0.178;2022-09-09T01:14:52;99970.44;;;21.00;81.98
46710;BME280;32442;51.514;-0.178;2022-09-09T01:17:26;99965.31;;;21.02;81.58
46710;BME280;32442;51.514;-0.178;2022-09-09T01:19:59;99971.41;;;21.04;81.44
46710;BME280;32442;51.514;-0.178;2022-09-09T01:27:26;99963.50;;;21.06;81.65
46710;BME280;32442;51.514;-0.178;2022-09-09T01:29:53;99973.41;;;21.03;81.95
46710;BME280;32442;51.514;-0.178;2022-09-09T01:34:50;99960.69;;;21.06;82.06
46710;BME280;32442;51.514;-0.178;2022-09-09T01:37:18;99961.84;;;21.05;82.22
46710;BME280;32442;51.514;-0.178;2022-09-09T01:39:45;99968.59;;;21.04;82.42
46710;BME280;32442;51.514;-0.178;2022-09-09T01:42:12;99963.81;;;21.04;82.19
46710;BME280;32442;51.514;-0.178;2022-09-09T01:44:40;99961.00;;;21.04;82.27
46710;BME280;32442;51.514;-0.178;2022-09-09T01:47:07;99965.81;;;21.04;82.56
46710;BME280;32442;51.514;-0.178;2022-09-09T01:49:34;99966.97;;;21.03;82.87
46710;BME280;32442;51.514;-0.178;2022-09-09T01:52:02;99963.00;;;21.04;82.65
46710;BME280;32442;51.514;-0.178;2022-09-09T01:54:30;99966.63;;;21.04;82.89
46710;BME280;32442;51.514;-0.178;2022-09-09T02:06:57;99963.63;;;21.09;82.65
46710;BME280;32442;51.514;-0.178;2022-09-09T02:09:24;99957.19;;;21.09;82.62
46710;BME280;32442;51.514;-0.178;2022-09-09T02:11:57;99961.66;;;21.10;82.57
46710;BME280;32442;51.514;-0.178;2022-09-09T02:14:27;99952.72;;;21.08;82.47
46710;BME280;32442;51.514;-0.178;2022-09-09T02:16:59;99960.34;;;21.07;82.85
46710;BME280;32442;51.514;-0.178;2022-09-09T02:19:32;99958.34;;;21.08;82.66
46710;BME280;32442;51.514;-0.178;2022-09-09T02:21:59;99960.00;;;21.09;82.90
46710;BME280;32442;51.514;-0.178;2022-09-09T02:24:28;99961.66;;;21.10;82.98
46710;BME280;32442;51.514;-0.178;2022-09-09T02:26:56;99966.44;;;21.09;83.02
46710;BME280;32442;51.514;-0.178;2022-09-09T02:29:27;99962.16;;;21.12;83.07
46710;BME280;32442;51.514;-0.178;2022-09-09T02:31:55;99961.00;;;21.13;82.38
46710;BME280;32442;51.514;-0.178;2022-09-09T02:34:24;99962.66;;;21.14;82.66
46710;BME280;32442;51.514;-0.178;2022-09-09T02:36:54;99961.84;;;21.13;82.90
46710;BME280;32442;51.514;-0.178;2022-09-09T02:39:21;99969.09;;;21.14;82.97
46710;BME280;32442;51.514;-0.178;2022-09-09T02:41:48;99965.75;;;21.12;83.58
46710;BME280;32442;51.514;-0.178;2022-09-09T02:44:16;99969.44;;;21.13;83.42
46710;BME280;32442;51.514;-0.178;2022-09-09T02:56:40;99973.06;;;21.13;84.16
46710;BME280;32442;51.514;-0.178;2022-09-09T02:59:08;99979.19;;;21.15;83.86
46710;BME280;32442;51.514;-0.178;2022-09-09T03:01:36;99979.66;;;21.17;83.65
46710;BME280;32442;51.514;-0.178;2022-09-09T03:04:04;99981.16;;;21.15;84.02
46710;BME280;32442;51.514;-0.178;2022-09-09T03:06:31;99975.06;;;21.13;84.06
46710;BME280;32442;51.514;-0.178;2022-09-09T03:08:59;99979.81;;;21.12;84.14
46710;BME280;32442;51.514;-0.178;2022-09-09T03:11:28;99983.47;;;21.13;84.31
46710;BME280;32442;51.514;-0.178;2022-09-09T03:13:55;99983.81;;;21.11;84.43
46710;BME280;32442;51.514;-0.178;2022-09-09T03:16:22;99979.81;;;21.12;84.26
46710;BME280;32442;51.514;-0.178;2022-09-09T03:18:49;99980.81;;;21.08;84.34
46710;BME280;32442;51.514;-0.178;2022-09-09T03:21:16;99982.16;;;21.10;84.62
46710;BME280;32442;51.514;-0.178;2022-09-09T03:23:41;99984.13;;;21.10;84.27
46710;BME280;32442;51.514;-0.178;2022-09-09T03:26:09;99985.28;;;21.09;84.48
46710;BME280;32442;51.514;-0.178;2022-09-09T03:28:36;99979.66;;;21.09;84.65
46710;BME280;32442;51.514;-0.178;2022-09-09T03:31:04;99983.63;;;21.08;84.61
46710;BME280;32442;51.514;-0.178;2022-09-09T03:33:31;99984.13;;;21.10;84.90
46710;BME280;32442;51.514;-0.178;2022-09-09T03:35:58;99982.47;;;21.09;85.13
46710;BME280;32442;51.514;-0.178;2022-09-09T03:38:25;99995.69;;;21.08;85.18
46710;BME280;32442;51.514;-0.178;2022-09-09T03:40:52;99993.72;;;21.09;85.29
46710;BME280;32442;51.514;-0.178;2022-09-09T03:43:22;99999.31;;;21.09;85.24
46710;BME280;32442;51.514;-0.178;2022-09-09T03:45:47;99993.72;;;21.09;85.14
46710;BME280;32442;51.514;-0.178;2022-09-09T03:48:15;100002.63;;;21.11;85.21
46710;BME280;32442;51.514;-0.178;2022-09-09T03:50:47;100002.97;;;21.09;85.14
46710;BME280;32442;51.514;-0.178;2022-09-09T03:53:15;100004.94;;;21.09;85.08
46710;BME280;32442;51.514;-0.178;2022-09-09T03:55:43;100006.59;;;21.10;85.15
46710;BME280;32442;51.514;-0.178;2022-09-09T03:58:11;100008.91;;;21.08;85.16
46710;BME280;32442;51.514;-0.178;2022-09-09T04:00:38;100011.72;;;21.08;85.50
46710;BME280;32442;51.514;-0.178;2022-09-09T04:03:05;100008.25;;;21.11;85.14
46710;BME280;32442;51.514;-0.178;2022-09-09T04:05:32;100008.56;;;21.09;85.26
46710;BME280;32442;51.514;-0.178;2022-09-09T04:08:14;100015.34;;;21.08;85.68
46710;BME280;32442;51.514;-0.178;2022-09-09T04:10:54;100025.44;;;21.09;85.21
46710;BME280;32442;51.514;-0.178;2022-09-09T04:13:24;100022.94;;;21.08;85.66
46710;BME280;32442;51.514;-0.178;2022-09-09T04:15:53;100022.28;;;21.11;85.66
46710;BME280;32442;51.514;-0.178;2022-09-09T04:18:19;100017.84;;;21.10;85.55
46710;BME280;32442;51.514;-0.178;2022-09-09T04:20:47;100023.94;;;21.12;85.50
46710;BME280;32442;51.514;-0.178;2022-09-09T04:23:14;100025.09;;;21.11;85.55
46710;BME280;32442;51.514;-0.178;2022-09-09T04:28:15;100034.19;;;21.08;85.74
46710;BME280;32442;51.514;-0.178;2022-09-09T04:30:45;100035.84;;;21.09;85.47
46710;BME280;32442;51.514;-0.178;2022-09-09T04:33:13;100023.78;;;21.08;85.80
46710;BME280;32442;51.514;-0.178;2022-09-09T04:38:07;100031.88;;;21.10;85.67
46710;BME280;32442;51.514;-0.178;2022-09-09T04:40:34;100035.38;;;21.07;85.28
46710;BME280;32442;51.514;-0.178;2022-09-09T04:45:28;100041.81;;;21.07;85.58
46710;BME280;32442;51.514;-0.178;2022-09-09T04:47:56;100039.31;;;21.06;85.66
46710;BME280;32442;51.514;-0.178;2022-09-09T04:50:22;100038.81;;;21.04;85.88
46710;BME280;32442;51.514;-0.178;2022-09-09T04:52:50;100045.41;;;21.08;85.25
46710;BME280;32442;51.514;-0.178;2022-09-09T04:55:18;100042.13;;;21.06;85.61
46710;BME280;32442;51.514;-0.178;2022-09-09T04:57:46;100044.44;;;21.04;85.87
46710;BME280;32442;51.514;-0.178;2022-09-09T05:00:13;100052.88;;;21.04;85.52
46710;BME280;32442;51.514;-0.178;2022-09-09T05:02:40;100051.72;;;21.05;85.60
46710;BME280;32442;51.514;-0.178;2022-09-09T05:05:09;100051.88;;;21.08;85.42
46710;BME280;32442;51.514;-0.178;2022-09-09T05:07:38;100053.69;;;21.04;85.40
46710;BME280;32442;51.514;-0.178;2022-09-09T05:10:05;100064.09;;;21.04;85.50
46710;BME280;32442;51.514;-0.178;2022-09-09T05:12:32;100070.53;;;21.04;85.19
46710;BME280;32442;51.514;-0.178;2022-09-09T05:14:59;100065.91;;;21.08;85.39
46710;BME280;32442;51.514;-0.178;2022-09-09T05:17:28;100069.91;;;21.07;85.28
46710;BME280;32442;51.514;-0.178;2022-09-09T05:19:55;100073.03;;;21.06;85.62
46710;BME280;32442;51.514;-0.178;2022-09-09T05:22:23;100078.66;;;21.06;85.33
46710;BME280;32442;51.514;-0.178;2022-09-09T05:24:50;100079.63;;;21.10;85.16
46710;BME280;32442;51.514;-0.178;2022-09-09T05:27:18;100081.94;;;21.08;85.07
46710;BME280;32442;51.514;-0.178;2022-09-09T05:29:45;100078.66;;;21.06;84.96
46710;BME280;32442;51.514;-0.178;2022-09-09T05:32:12;100080.47;;;21.10;85.46
46710;BME280;32442;51.514;-0.178;2022-09-09T05:34:41;100087.53;;;21.08;nan
46710;BME280;32442;51.514;-0.178;2022-09-09T05:37:08;100089.56;;;21.07;84.64
46710;BME280;32442;51.514;-0.178;2022-09-09T05:39:35;100093.53;;;21.06;84.56
46710;BME280;32442;51.514;-0.178;2022-09-09T05:42:03;100099.28;;;21.10;84.41
46710;BME280;32442;51.514;-0.178;2022-09-09T05:44:29;100099.47;;;21.05;84.68
46710;BME280;32442;51.514;-0.178;2022-09-09T05:46:57;100102.78;;;21.07;84.51
46710;BME280;32442;51.514;-0.178;2022-09-09T05:49:24;100103.59;;;21.07;84.29
46710;BME280;32442;51.514;-0.178;2022-09-09T05:51:51;100101.28;;;21.09;84.54
46710;BME280;32442;51.514;-0.178;2022-09-09T05:54:19;100103.59;;;21.07;84.62
46710;BME280;32442;51.514;-0.178;2022-09-09T05:56:46;100119.94;;;21.05;84.70
46710;BME280;32442;51.514;-0.178;2022-09-09T05:59:14;100112.03;;;21.07;84.44
46710;BME280;32442;51.514;-0.178;2022-09-09T06:01:42;100119.28;;;21.08;84.03
46710;BME280;32442;51.514;-0.178;2022-09-09T06:04:10;100125.72;;;21.09;83.70
46710;BME280;32442;51.514;-0.178;2022-09-09T06:06:36;100129.19;;;21.06;84.30
46710;BME280;32442;51.514;-0.178;2022-09-09T06:09:05;100128.38;;;21.05;84.14
46710;BME280;32442;51.514;-0.178;2022-09-09T06:11:35;100135.97;;;21.05;84.01
46710;BME280;32442;51.514;-0.178;2022-09-09T06:14:03;100131.19;;;21.05;84.17
46710;BME280;32442;51.514;-0.178;2022-09-09T06:16:30;100132.34;;;21.04;84.61
46710;BME280;32442;51.514;-0.178;2022-09-09T06:18:59;100133.66;;;21.07;84.46
46710;BME280;32442;51.514;-0.178;2022-09-09T06:21:28;100134.66;;;21.02;84.77
46710;BME280;32442;51.514;-0.178;2022-09-09T06:23:55;100139.94;;;21.04;84.33
46710;BME280;32442;51.514;-0.178;2022-09-09T06:26:29;100142.59;;;21.00;84.63
46710;BME280;32442;51.514;-0.178;2022-09-09T06:28:57;100136.81;;;20.97;84.53
46710;BME280;32442;51.514;-0.178;2022-09-09T06:31:26;100150.69;;;20.93;84.66
46710;BME280;32442;51.514;-0.178;2022-09-09T06:33:58;100150.69;;;20.93;84.35
46710;BME280;32442;51.514;-0.178;2022-09-09T06:36:27;100147.69;;;20.90;84.40
46710;BME280;32442;51.514;-0.178;2022-09-09T06:38:56;100154.97;;;20.91;84.33
46710;BME280;32442;51.514;-0.178;2022-09-09T06:41:25;100144.41;;;20.88;84.41
46710;BME280;32442;51.514;-0.178;2022-09-09T06:46:21;100152.84;;;20.96;84.01
46710;BME280;32442;51.514;-0.178;2022-09-09T06:48:49;100154.66;;;21.01;83.23
46710;BME280;32442;51.514;-0.178;2022-09-09T06:51:18;100154.81;;;20.96;83.72
46710;BME280;32442;51.514;-0.178;2022-09-09T06:53:46;100153.81;;;20.92;82.32
46710;BME280;32442;51.514;-0.178;2022-09-09T06:58:43;100162.38;;;20.52;79.24
46710;BME280;32442;51.514;-0.178;2022-09-09T07:01:13;100168.47;;;20.46;79.16
46710;BME280;32442;51.514;-0.178;2022-09-09T07:03:39;100175.06;;;20.41;79.64
46710;BME280;32442;51.514;-0.178;2022-09-09T07:06:06;100167.25;;;20.29;79.55
46710;BME280;32442;51.514;-0.178;2022-09-09T07:08:33;100174.84;;;20.29;79.80
46710;BME280;32442;51.514;-0.178;2022-09-09T07:13:28;100186.88;;;20.21;79.96
46710;BME280;32442;51.514;-0.178;2022-09-09T07:15:55;100192.28;;;20.17;80.40
46710;BME280;32442;51.514;-0.178;2022-09-09T07:18:22;100195.25;;;20.12;79.65
46710;BME280;32442;51.514;-0.178;2022-09-09T07:23:17;100205.53;;;19.94;79.97
46710;BME280;32442;51.514;-0.178;2022-09-09T07:25:45;100202.84;;;20.12;79.82
46710;BME280;32442;51.514;-0.178;2022-09-09T07:28:12;100204.88;;;20.28;79.71
46710;BME280;32442;51.514;-0.178;2022-09-09T07:30:39;100212.03;;;20.34;79.98
46710;BME280;32442;51.514;-0.178;2022-09-09T07:33:07;100213.50;;;20.40;79.90
46710;BME280;32442;51.514;-0.178;2022-09-09T07:35:34;100218.16;;;20.45;80.50
46710;BME280;32442;51.514;-0.178;2022-09-09T07:38:03;100220.31;;;20.48;80.18
46710;BME280;32442;51.514;-0.178;2022-09-09T07:40:33;100224.75;;;20.49;80.07
46710;BME280;32442;51.514;-0.178;2022-09-09T07:43:00;100235.84;;;20.54;80.04
46710;BME280;32442;51.514;-0.178;2022-09-09T07:45:27;100224.59;;;20.54;80.08
46710;BME280;32442;51.514;-0.178;2022-09-09T07:47:55;100230.41;;;20.58;79.61
46710;BME280;32442;51.514;-0.178;2022-09-09T07:50:22;100244.09;;;20.59;79.70
46710;BME280;32442;51.514;-0.178;2022-09-09T07:52:51;100257.66;;;20.57;79.87
46710;BME280;32442;51.514;-0.178;2022-09-09T07:55:19;100242.44;;;20.58;79.43
46710;BME280;32442;51.514;-0.178;2022-09-09T07:57:46;100250.06;;;20.58;79.26
46710;BME280;32442;51.514;-0.178;2022-09-09T08:02:41;100253.66;;;20.58;79.35
46710;BME280;32442;51.514;-0.178;2022-09-09T08:05:08;100247.75;;;20.60;79.10
46710;BME280;32442;51.514;-0.178;2022-09-09T08:07:35;100257.00;;;20.60;78.62
46710;BME280;32442;51.514;-0.178;2022-09-09T08:10:03;100251.38;;;20.60;78.59
46710;BME280;32442;51.514;-0.178;2022-09-09T08:12:30;100261.94;;;20.63;78.21
46710;BME280;32442;51.514;-0.178;2022-09-09T08:14:57;100254.69;;;20.62;78.41
46710;BME280;32442;51.514;-0.178;2022-09-09T08:17:24;100258.66;;;20.61;77.97
46710;BME280;32442;51.514;-0.178;2022-09-09T08:19:51;100259.81;;;20.60;78.40
46710;BME280;32442;51.514;-0.178;2022-09-09T08:22:18;100287.22;;;20.63;77.78
46710;BME280;32442;51.514;-0.178;2022-09-09T08:24:45;100278.78;;;20.63;77.69
46710;BME280;32442;51.514;-0.178;2022-09-09T08:29:40;100291.19;;;20.62;77.27
46710;BME280;32442;51.514;-0.178;2022-09-09T08:32:07;100285.56;;;20.62;76.93
46710;BME280;32442;51.514;-0.178;2022-09-09T08:34:33;100295.63;;;20.63;77.01
46710;BME280;32442;51.514;-0.178;2022-09-09T08:37:00;100306.84;;;20.63;77.33
46710;BME280;32442;51.514;-0.178;2022-09-09T08:39:27;100308.84;;;20.63;77.27
46710;BME280;32442;51.514;-0.178;2022-09-09T08:44:24;100310.84;;;20.62;77.09
46710;BME280;32442;51.514;-0.178;2022-09-09T08:46:58;100305.72;;;20.64;76.92
46710;BME280;32442;51.514;-0.178;2022-09-09T08:51:53;100322.25;;;20.66;76.31
46710;BME280;32442;51.514;-0.178;2022-09-09T08:54:21;100303.72;;;20.65;76.64
46710;BME280;32442;51.514;-0.178;2022-09-09T08:56:47;100321.41;;;20.65;76.21
46710;BME280;32442;51.514;-0.178;2022-09-09T08:59:16;100337.41;;;20.65;76.60
46710;BME280;32442;51.514;-0.178;2022-09-09T09:11:43;100341.06;;;20.65;75.91
46710;BME280;32442;51.514;-0.178;2022-09-09T09:16:46;100348.81;;;20.68;75.47
46710;BME280;32442;51.514;-0.178;2022-09-09T09:19:15;100347.69;;;20.69;75.56
46710;BME280;32442;51.514;-0.178;2022-09-09T09:21:43;100351.00;;;20.71;75.21
46710;BME280;32442;51.514;-0.178;2022-09-09T09:24:15;100350.00;;;20.76;74.93
46710;BME280;32442;51.514;-0.178;2022-09-09T09:26:47;100364.72;;;20.81;75.03
46710;BME280;32442;51.514;-0.178;2022-09-09T09:29:17;100362.91;;;20.85;74.88
46710;BME280;32442;51.514;-0.178;2022-09-09T09:31:45;100363.25;;;20.84;75.50
46710;BME280;32442;51.514;-0.178;2022-09-09T09:34:14;100369.72;;;20.84;74.86
46710;BME280;32442;51.514;-0.178;2022-09-09T09:36:42;100373.84;;;20.87;75.51
46710;BME280;32442;51.514;-0.178;2022-09-09T09:39:21;100373.84;;;20.87;75.60
46710;BME280;32442;51.514;-0.178;2022-09-09T09:42:10;100369.53;;;20.90;75.69
46710;BME280;32442;51.514;-0.178;2022-09-09T09:44:44;100378.47;;;20.92;76.11
46710;BME280;32442;51.514;-0.178;2022-09-09T09:52:12;100388.03;;;20.91;75.33
46710;BME280;32442;51.514;-0.178;2022-09-09T09:54:43;100380.63;;;20.95;75.82
46710;BME280;32442;51.514;-0.178;2022-09-09T09:59:37;100388.72;;;20.96;75.16
46710;BME280;32442;51.514;-0.178;2022-09-09T10:04:34;100401.25;;;20.90;74.09
46710;BME280;32442;51.514;-0.178;2022-09-09T10:07:09;100401.47;;;20.94;74.51
46710;BME280;32442;51.514;-0.178;2022-09-09T10:09:29;100398.97;;;20.92;73.50
46710;BME280;32442;51.514;-0.178;2022-09-09T10:26:47;100408.84;;;20.90;72.42
46710;BME280;32442;51.514;-0.178;2022-09-09T10:36:46;100414.91;;;20.74;75.29
46710;BME280;32442;51.514;-0.178;2022-09-09T10:56:32;100432.53;;;20.66;76.58
46710;BME280;32442;51.514;-0.178;2022-09-09T11:01:31;100434.00;;;20.64;76.69
46710;BME280;32442;51.514;-0.178;2022-09-09T11:04:03;100424.75;;;20.63;77.46
46710;BME280;32442;51.514;-0.178;2022-09-09T11:06:34;100423.28;;;20.66;77.15
46710;BME280;32442;51.514;-0.178;2022-09-09T11:09:03;100428.06;;;20.65;77.65
46710;BME280;32442;51.514;-0.178;2022-09-09T11:14:01;100425.97;;;20.71;77.74
46710;BME280;32442;51.514;-0.178;2022-09-09T11:16:32;100427.59;;;20.72;77.16
46710;BME280;32442;51.514;-0.178;2022-09-09T11:19:01;100428.25;;;20.69;76.95
46710;BME280;32442;51.514;-0.178;2022-09-09T11:21:32;100432.53;;;20.66;77.20
46710;BME280;32442;51.514;-0.178;2022-09-09T11:24:03;100437.00;;;20.67;76.67
46710;BME280;32442;51.514;-0.178;2022-09-09T11:26:37;100435.34;;;20.66;76.80
46710;BME280;32442;51.514;-0.178;2022-09-09T11:44:43;100444.44;;;20.72;75.61
46710;BME280;32442;51.514;-0.178;2022-09-09T11:49:52;100441.63;;;20.72;75.53
46710;BME280;32442;51.514;-0.178;2022-09-09T11:55:09;100455.13;;;20.61;75.03
46710;BME280;32442;51.514;-0.178;2022-09-09T11:57:38;100451.38;;;20.66;74.38
46710;BME280;32442;51.514;-0.178;2022-09-09T12:00:27;100454.34;;;20.69;73.62
46710;BME280;32442;51.514;-0.178;2022-09-09T12:02:52;100448.22;;;20.67;73.76
46710;BME280;32442;51.514;-0.178;2022-09-09T12:05:19;100443.81;;;20.75;73.91
46710;BME280;32442;51.514;-0.178;2022-09-09T12:07:50;100448.78;;;20.78;73.61
46710;BME280;32442;51.514;-0.178;2022-09-09T12:15:46;100450.56;;;20.74;72.17
46710;BME280;32442;51.514;-0.178;2022-09-09T12:18:21;100449.94;;;20.77;72.19
46710;BME280;32442;51.514;-0.178;2022-09-09T12:20:53;100438.19;;;20.75;71.69
46710;BME280;32442;51.514;-0.178;2022-09-09T12:31:03;100438.88;;;20.80;71.13
46710;BME280;32442;51.514;-0.178;2022-09-09T12:33:35;100442.72;;;20.84;70.91
46710;BME280;32442;51.514;-0.178;2022-09-09T12:36:05;100444.03;;;20.87;70.53
46710;BME280;32442;51.514;-0.178;2022-09-09T12:38:40;100435.78;;;20.91;70.27
46710;BME280;32442;51.514;-0.178;2022-09-09T12:43:35;100451.19;;;20.93;70.16
46710;BME280;32442;51.514;-0.178;2022-09-09T12:46:03;100444.06;;;20.96;70.17
46710;BME280;32442;51.514;-0.178;2022-09-09T12:48:37;100439.94;;;20.93;70.40
46710;BME280;32442;51.514;-0.178;2022-09-09T12:51:07;100448.53;;;20.97;70.12
46710;BME280;32442;51.514;-0.178;2022-09-09T12:56:19;100443.59;;;20.94;68.45
46710;BME280;32442;51.514;-0.178;2022-09-09T12:58:46;100446.72;;;20.92;68.28
46710;BME280;32442;51.514;-0.178;2022-09-09T13:01:23;100443.06;;;20.92;68.76
46710;BME280;32442;51.514;-0.178;2022-09-09T13:03:53;100448.03;;;20.95;69.08
46710;BME280;32442;51.514;-0.178;2022-09-09T13:06:27;100452.81;;;20.94;67.75
46710;BME280;32442;51.514;-0.178;2022-09-09T13:08:55;100449.03;;;20.99;67.32
46710;BME280;32442;51.514;-0.178;2022-09-09T13:11:27;100454.16;;;20.97;68.18
46710;BME280;32442;51.514;-0.178;2022-09-09T13:13:56;100445.25;;;21.03;67.29
46710;BME280;32442;51.514;-0.178;2022-09-09T13:16:30;100447.75;;;21.05;67.50
46710;BME280;32442;51.514;-0.178;2022-09-09T13:19:07;100442.97;;;21.05;66.73
46710;BME280;32442;51.514;-0.178;2022-09-09T13:21:36;100449.25;;;21.02;67.15
46710;BME280;32442;51.514;-0.178;2022-09-09T13:24:30;100453.06;;;21.06;66.91
46710;BME280;32442;51.514;-0.178;2022-09-09T13:26:59;100455.03;;;21.06;67.39
46710;BME280;32442;51.514;-0.178;2022-09-09T13:29:28;100453.22;;;21.10;66.67
46710;BME280;32442;51.514;-0.178;2022-09-09T13:32:05;100449.78;;;21.13;66.63
46710;BME280;32442;51.514;-0.178;2022-09-09T13:34:33;100461.34;;;21.11;66.38
46710;BME280;32442;51.514;-0.178;2022-09-09T13:37:16;100451.72;;;21.12;65.36
46710;BME280;32442;51.514;-0.178;2022-09-09T13:39:50;100469.75;;;21.11;65.77
46710;BME280;32442;51.514;-0.178;2022-09-09T13:42:25;100463.63;;;21.09;66.25
46710;BME280;32442;51.514;-0.178;2022-09-09T13:44:52;100449.78;;;21.13;65.83
46710;BME280;32442;51.514;-0.178;2022-09-09T13:47:21;100457.06;;;21.14;66.13
46710;BME280;32442;51.514;-0.178;2022-09-09T13:49:49;100452.59;;;21.13;66.35
46710;BME280;32442;51.514;-0.178;2022-09-09T13:52:17;100465.19;;;21.15;65.22
46710;BME280;32442;51.514;-0.178;2022-09-09T13:54:48;100464.97;;;21.12;65.06
46710;BME280;32442;51.514;-0.178;2022-09-09T13:57:17;100451.97;;;21.16;65.22
46710;BME280;32442;51.514;-0.178;2022-09-09T13:59:44;100462.84;;;21.17;65.13
46710;BME280;32442;51.514;-0.178;2022-09-09T14:02:31;100461.41;;;21.20;65.06
46710;BME280;32442;51.514;-0.178;2022-09-09T14:04:58;100467.84;;;21.20;64.82
46710;BME280;32442;51.514;-0.178;2022-09-09T14:07:25;100466.19;;;21.19;64.63
46710;BME280;32442;51.514;-0.178;2022-09-09T14:09:52;100470.97;;;21.19;64.87
46710;BME280;32442;51.514;-0.178;2022-09-09T14:12:19;100475.44;;;21.20;64.69
46710;BME280;32442;51.514;-0.178;2022-09-09T14:14:46;100480.06;;;21.16;64.22
46710;BME280;32442;51.514;-0.178;2022-09-09T14:17:13;100476.41;;;21.15;65.06
46710;BME280;32442;51.514;-0.178;2022-09-09T14:19:40;100483.19;;;21.14;65.11
46710;BME280;32442;51.514;-0.178;2022-09-09T14:22:07;100475.59;;;21.15;65.24
46710;BME280;32442;51.514;-0.178;2022-09-09T14:24:34;100481.22;;;21.15;65.04
46710;BME280;32442;51.514;-0.178;2022-09-09T14:27:00;100480.06;;;21.16;64.95
46710;BME280;32442;51.514;-0.178;2022-09-09T14:29:27;100473.63;;;21.15;64.75
46710;BME280;32442;51.514;-0.178;2022-09-09T14:31:54;100472.47;;;21.16;64.61
46710;BME280;32442;51.514;-0.178;2022-09-09T14:34:21;100469.31;;;21.18;65.00
46710;BME280;32442;51.514;-0.178;2022-09-09T14:36:47;100471.50;;;21.21;65.94
46710;BME280;32442;51.514;-0.178;2022-09-09T14:39:14;100474.78;;;21.23;65.46
46710;BME280;32442;51.514;-0.178;2022-09-09T14:41:41;100475.94;;;21.22;65.81
46710;BME280;32442;51.514;-0.178;2022-09-09T14:44:07;100474.63;;;21.19;65.29
46710;BME280;32442;51.514;-0.178;2022-09-09T14:46:34;100465.88;;;21.21;65.72
46710;BME280;32442;51.514;-0.178;2022-09-09T14:49:01;100472.81;;;21.23;65.55
46710;BME280;32442;51.514;-0.178;2022-09-09T14:51:28;100482.06;;;21.24;65.47
46710;BME280;32442;51.514;-0.178;2022-09-09T14:53:55;100474.31;;;21.21;65.49
46710;BME280;32442;51.514;-0.178;2022-09-09T14:56:27;100480.41;;;21.23;65.35
46710;BME280;32442;51.514;-0.178;2022-09-09T14:58:57;100471.97;;;21.23;65.56
46710;BME280;32442;51.514;-0.178;2022-09-09T15:01:24;100471.97;;;21.23;65.55
46710;BME280;32442;51.514;-0.178;2022-09-09T15:03:54;100475.31;;;21.25;65.53
46710;BME280;32442;51.514;-0.178;2022-09-09T15:06:22;100474.13;;;21.26;65.01
46710;BME280;32442;51.514;-0.178;2022-09-09T15:08:50;100481.09;;;21.28;65.03
46710;BME280;32442;51.514;-0.178;2022-09-09T15:11:16;100477.78;;;21.26;65.20
46710;BME280;32442;51.514;-0.178;2022-09-09T15:13:43;100492.66;;;21.27;64.68
46710;BME280;32442;51.514;-0.178;2022-09-09T15:16:11;100499.09;;;21.27;65.17
46710;BME280;32442;51.514;-0.178;2022-09-09T15:18:38;100486.72;;;21.28;65.98
46710;BME280;32442;51.514;-0.178;2022-09-09T15:21:13;100495.16;;;21.28;66.22
46710;BME280;32442;51.514;-0.178;2022-09-09T15:23:40;100508.53;;;21.32;67.49
46710;BME280;32442;51.514;-0.178;2022-09-09T15:26:06;100504.28;;;21.34;67.25
46710;BME280;32442;51.514;-0.178;2022-09-09T15:28:34;100507.72;;;21.31;67.40
46710;BME280;32442;51.514;-0.178;2022-09-09T15:31:05;100503.75;;;21.32;67.55
46710;BME280;32442;51.514;-0.178;2022-09-09T15:33:34;100509.69;;;21.30;68.26
46710;BME280;32442;51.514;-0.178;2022-09-09T15:36:16;100509.19;;;21.28;68.41
46710;BME280;32442;51.514;-0.178;2022-09-09T15:38:43;100515.97;;;21.27;68.68
46710;BME280;32442;51.514;-0.178;2022-09-09T15:41:11;100529.19;;;21.27;68.71
46710;BME280;32442;51.514;-0.178;2022-09-09T15:43:37;100521.91;;;21.26;68.83
46710;BME280;32442;51.514;-0.178;2022-09-09T15:48:43;100523.53;;;21.18;69.54
46710;BME280;32442;51.514;-0.178;2022-09-09T15:51:13;100521.72;;;21.22;69.85
46710;BME280;32442;51.514;-0.178;2022-09-09T15:54:00;100528.00;;;21.19;70.32
46710;BME280;32442;51.514;-0.178;2022-09-09T15:56:27;100524.22;;;21.24;69.66
46710;BME280;32442;51.514;-0.178;2022-09-09T15:58:55;100516.28;;;21.26;69.82
46710;BME280;32442;51.514;-0.178;2022-09-09T16:01:23;100516.63;;;21.24;70.96
46710;BME280;32442;51.514;-0.178;2022-09-09T16:03:50;100519.09;;;21.26;70.44
46710;BME280;32442;51.514;-0.178;2022-09-09T16:06:18;100522.06;;;21.21;70.79
46710;BME280;32442;51.514;-0.178;2022-09-09T16:08:45;100525.19;;;21.19;70.50
46710;BME280;32442;51.514;-0.178;2022-09-09T16:11:20;100528.81;;;21.20;70.41